Terminal Aerodrome Forecast
Issued by NWS

Home | Current Version | Previous Version | Text Only | Print | Product List | Glossary On
Versions: 1 2 3 4 5 6 7 8 9 10 11 12 13 14
000
FTUS44 KJAN 030500
TAFGTR
TAF
KGTR 030539Z 0306/0406 00000KT 4SM BR OVC003
     FM030900 14004KT 1/2SM FG OVC001
     FM031400 17008KT 4SM BR OVC003
     FM032100 18008KT 6SM BR OVC007
     FM040000 18005KT 4SM BR OVC003=

USA.gov is the U.S. government's official web portal to all federal, state and local government web resources and services.